createdAt,value
2022-07-30T00:01:29.430Z,99.90
2022-07-30T00:04:01.253Z,99.90
2022-07-30T00:06:33.104Z,99.90
2022-07-30T00:09:04.828Z,99.90
2022-07-30T00:11:36.728Z,99.90
2022-07-30T00:14:08.726Z,99.90
2022-07-30T00:16:40.509Z,99.90
2022-07-30T00:19:12.876Z,99.90
2022-07-30T00:21:45.324Z,99.90
2022-07-30T00:24:17.078Z,99.90
2022-07-30T00:26:48.816Z,99.90
2022-07-30T00:29:20.745Z,99.90
2022-07-30T00:31:52.821Z,99.90
2022-07-30T00:34:24.602Z,99.90
2022-07-30T00:36:56.679Z,99.90
2022-07-30T00:39:30.339Z,99.90
2022-07-30T00:42:04.648Z,99.90
2022-07-30T00:44:36.421Z,99.90
2022-07-30T00:47:12.851Z,99.90
2022-07-30T00:49:44.676Z,99.90
2022-07-30T00:52:16.617Z,99.90
2022-07-30T00:54:48.392Z,99.90
2022-07-30T00:57:20.117Z,99.90
2022-07-30T00:59:52.013Z,99.90
2022-07-30T01:02:23.970Z,99.90
2022-07-30T01:04:55.749Z,99.90
2022-07-30T01:07:27.513Z,99.90
2022-07-30T01:09:59.277Z,99.90
2022-07-30T01:12:32.057Z,99.90
2022-07-30T01:15:06.629Z,99.90
2022-07-30T01:17:39.001Z,99.90
2022-07-30T01:20:17.618Z,99.90
2022-07-30T01:23:16.253Z,99.90
2022-07-30T01:26:18.834Z,99.90
2022-07-30T01:28:53.995Z,99.90
2022-07-30T01:31:28.417Z,99.90
2022-07-30T01:34:02.071Z,99.90
2022-07-30T01:36:34.239Z,99.90
2022-07-30T01:39:06.871Z,99.90
2022-07-30T01:41:39.645Z,99.90
2022-07-30T01:44:13.574Z,99.90
2022-07-30T01:46:47.412Z,99.90
2022-07-30T01:49:21.451Z,99.90
2022-07-30T01:51:54.750Z,99.90
2022-07-30T01:54:27.851Z,99.90
2022-07-30T01:57:02.334Z,99.90
2022-07-30T01:59:36.937Z,99.90
2022-07-30T02:02:08.679Z,99.90
2022-07-30T02:04:40.670Z,99.90
2022-07-30T02:07:19.902Z,99.90
2022-07-30T02:09:55.903Z,99.90
2022-07-30T02:12:30.967Z,99.90
2022-07-30T02:16:02.974Z,99.90
2022-07-30T02:18:45.739Z,99.90
2022-07-30T02:21:21.541Z,99.90
2022-07-30T02:23:56.411Z,99.90
2022-07-30T02:26:29.695Z,99.90
2022-07-30T02:29:03.209Z,99.90
2022-07-30T02:31:37.077Z,99.90
2022-07-30T02:34:10.295Z,99.90
2022-07-30T02:36:44.545Z,99.90
2022-07-30T02:39:17.646Z,99.90
2022-07-30T02:41:52.216Z,99.90
2022-07-30T02:44:26.677Z,99.90
2022-07-30T02:47:00.077Z,99.90
2022-07-30T02:50:00.210Z,99.90
2022-07-30T02:52:33.035Z,99.90
2022-07-30T02:55:06.683Z,99.90
2022-07-30T02:57:43.505Z,99.90
2022-07-30T03:00:15.977Z,99.90
2022-07-30T03:02:48.681Z,99.90
2022-07-30T03:05:21.403Z,99.90
2022-07-30T03:07:56.386Z,99.90
2022-07-30T03:10:29.007Z,99.90
2022-07-30T03:13:04.428Z,99.90
2022-07-30T03:15:39.512Z,99.90
2022-07-30T03:18:14.484Z,99.90
2022-07-30T03:20:52.656Z,99.90
2022-07-30T03:23:25.393Z,99.90
2022-07-30T03:26:01.643Z,99.90
2022-07-30T03:28:38.032Z,99.90
2022-07-30T03:31:10.598Z,99.90
2022-07-30T03:33:43.845Z,99.90
2022-07-30T03:36:17.036Z,99.90
2022-07-30T03:38:49.875Z,99.90
2022-07-30T03:41:23.103Z,99.90
2022-07-30T03:43:56.178Z,99.90
2022-07-30T03:46:28.880Z,99.90
2022-07-30T03:49:01.247Z,99.90
2022-07-30T03:51:35.993Z,99.90
2022-07-30T03:54:13.542Z,99.90
2022-07-30T03:56:46.161Z,99.90
2022-07-30T03:59:30.808Z,99.90
2022-07-30T04:02:05.863Z,99.90
2022-07-30T04:05:15.827Z,99.90
2022-07-30T04:07:48.208Z,99.90
2022-07-30T04:10:21.799Z,99.90
2022-07-30T04:13:05.418Z,99.90
2022-07-30T04:16:38.956Z,99.90
2022-07-30T04:19:05.358Z,99.90
2022-07-30T04:21:40.459Z,99.90
2022-07-30T04:24:17.271Z,99.90
2022-07-30T04:26:51.840Z,99.90
2022-07-30T04:29:25.100Z,99.90
2022-07-30T04:31:59.382Z,99.90
2022-07-30T04:34:51.471Z,99.90
2022-07-30T04:37:31.325Z,99.90
2022-07-30T04:40:03.605Z,99.90
2022-07-30T04:42:35.595Z,99.90
2022-07-30T04:45:11.601Z,99.90
2022-07-30T04:47:58.422Z,99.90
2022-07-30T04:50:53.595Z,99.90
2022-07-30T04:53:29.273Z,99.90
2022-07-30T04:56:05.381Z,99.90
2022-07-30T04:58:37.745Z,99.90
2022-07-30T05:01:10.489Z,99.90
2022-07-30T05:03:43.597Z,99.90
2022-07-30T05:06:16.667Z,99.90
2022-07-30T05:08:49.389Z,99.90
2022-07-30T05:11:21.148Z,99.90
2022-07-30T05:13:53.241Z,99.90
2022-07-30T05:16:27.566Z,99.90
2022-07-30T05:19:00.967Z,99.90
2022-07-30T05:21:33.272Z,99.90
2022-07-30T05:24:05.659Z,99.90
2022-07-30T05:26:53.477Z,99.90
2022-07-30T05:29:26.138Z,99.90
2022-07-30T05:32:04.296Z,99.90
2022-07-30T05:34:40.541Z,99.90
2022-07-30T05:37:12.576Z,99.90
2022-07-30T05:40:02.337Z,99.90
2022-07-30T05:43:04.262Z,99.90
2022-07-30T05:45:36.293Z,99.90
2022-07-30T05:48:08.355Z,99.90
2022-07-30T05:50:40.929Z,99.90
2022-07-30T05:53:12.671Z,99.90
2022-07-30T05:56:08.114Z,99.90
2022-07-30T05:59:02.011Z,99.90
2022-07-30T06:01:53.766Z,99.90
2022-07-30T06:04:32.637Z,99.90
2022-07-30T06:07:08.834Z,99.90
2022-07-30T06:09:41.613Z,99.90
2022-07-30T06:12:14.098Z,99.90
2022-07-30T06:14:46.461Z,99.90
2022-07-30T06:17:22.881Z,99.90
2022-07-30T06:20:20.266Z,99.90
2022-07-30T06:23:07.449Z,99.90
2022-07-30T06:25:59.341Z,99.90
2022-07-30T06:28:39.406Z,99.90
2022-07-30T06:31:30.047Z,99.90
2022-07-30T06:34:01.908Z,99.90
2022-07-30T06:36:39.178Z,99.90
2022-07-30T06:39:56.459Z,99.90
2022-07-30T06:42:24.513Z,99.90
2022-07-30T06:45:31.485Z,99.90
2022-07-30T06:48:19.331Z,99.90
2022-07-30T06:50:51.227Z,99.90
2022-07-30T06:53:23.137Z,99.90
2022-07-30T06:56:14.122Z,99.90
2022-07-30T06:58:53.274Z,99.90
2022-07-30T07:01:30.984Z,99.90
2022-07-30T07:04:04.175Z,99.90
2022-07-30T07:06:36.199Z,99.90
2022-07-30T07:09:08.156Z,99.90
2022-07-30T07:12:06.367Z,99.90
2022-07-30T07:14:38.199Z,99.90
2022-07-30T07:17:10.167Z,99.90
2022-07-30T07:20:03.005Z,99.90
2022-07-30T07:22:41.127Z,99.90
2022-07-30T07:25:13.753Z,99.90
2022-07-30T07:27:46.686Z,99.90
2022-07-30T07:30:38.546Z,99.90
2022-07-30T07:33:13.346Z,99.90
2022-07-30T07:35:50.324Z,99.90
2022-07-30T07:38:36.519Z,99.90
2022-07-30T07:41:08.283Z,99.90
2022-07-30T07:43:40.830Z,99.90
2022-07-30T07:46:17.202Z,99.90
2022-07-30T07:49:06.802Z,99.90
2022-07-30T07:51:57.466Z,99.90
2022-07-30T07:54:29.245Z,99.80
2022-07-30T07:57:03.016Z,98.90
2022-07-30T07:59:42.918Z,98.00
2022-07-30T08:02:20.290Z,97.50
2022-07-30T08:05:18.329Z,97.30
2022-07-30T08:08:06.372Z,98.10
2022-07-30T08:10:56.713Z,97.70
2022-07-30T08:13:52.553Z,97.50
2022-07-30T08:16:45.135Z,96.60
2022-07-30T08:19:35.980Z,95.70
2022-07-30T08:22:22.021Z,95.20
2022-07-30T08:24:53.934Z,95.50
2022-07-30T08:27:26.304Z,96.40
2022-07-30T08:29:58.578Z,96.30
2022-07-30T08:32:30.587Z,96.50
2022-07-30T08:35:05.633Z,96.30
2022-07-30T08:37:41.008Z,96.00
2022-07-30T08:40:13.343Z,95.60
2022-07-30T08:42:56.289Z,96.10
2022-07-30T08:45:35.138Z,96.10
2022-07-30T08:48:36.360Z,96.80
2022-07-30T08:51:08.884Z,97.40
2022-07-30T08:53:42.095Z,98.10
2022-07-30T08:56:13.922Z,95.00
2022-07-30T08:58:46.496Z,95.20
2022-07-30T09:01:22.466Z,95.00
2022-07-30T09:03:54.442Z,95.10
2022-07-30T09:06:26.437Z,94.90
2022-07-30T09:08:58.251Z,94.90
2022-07-30T09:11:30.421Z,94.10
2022-07-30T09:14:10.130Z,94.10
2022-07-30T09:16:43.860Z,93.70
2022-07-30T09:19:20.542Z,93.70
2022-07-30T09:22:00.729Z,93.00
2022-07-30T09:25:01.334Z,92.80
2022-07-30T09:27:49.939Z,92.10
2022-07-30T09:30:57.511Z,92.80
2022-07-30T09:33:48.170Z,93.70
2022-07-30T09:36:38.425Z,93.00
2022-07-30T09:39:38.704Z,91.70
2022-07-30T09:42:32.432Z,91.50
2022-07-30T09:45:14.684Z,91.50
2022-07-30T09:47:49.346Z,91.70
2022-07-30T09:50:30.353Z,91.00
2022-07-30T09:53:12.076Z,90.80
2022-07-30T09:55:46.074Z,90.30
2022-07-30T10:01:11.569Z,91.50
2022-07-30T10:04:09.666Z,91.60
2022-07-30T10:07:01.534Z,91.70
2022-07-30T10:09:48.907Z,91.50
2022-07-30T10:12:25.382Z,90.70
2022-07-30T10:15:01.796Z,90.60
2022-07-30T10:17:38.749Z,90.50
2022-07-30T10:20:30.414Z,90.70
2022-07-30T10:23:09.882Z,90.70
2022-07-30T10:26:07.025Z,90.10
2022-07-30T10:28:59.101Z,87.10
2022-07-30T10:31:46.784Z,87.90
2022-07-30T10:34:23.523Z,87.00
2022-07-30T10:37:04.627Z,87.80
2022-07-30T10:39:47.130Z,86.00
2022-07-30T10:42:34.289Z,85.30
2022-07-30T10:45:46.398Z,85.70
2022-07-30T10:48:19.726Z,85.80
2022-07-30T10:50:58.671Z,82.60
2022-07-30T10:53:48.734Z,84.60
2022-07-30T10:56:25.982Z,84.40
2022-07-30T10:59:03.419Z,82.80
2022-07-30T11:01:51.704Z,80.30
2022-07-30T11:04:29.645Z,80.90
2022-07-30T11:07:29.564Z,81.10
2022-07-30T11:10:05.226Z,81.90
2022-07-30T11:12:45.345Z,84.20
2022-07-30T11:15:19.205Z,82.30
2022-07-30T11:18:03.357Z,79.50
2022-07-30T11:20:36.946Z,78.90
2022-07-30T11:23:28.913Z,79.20
2022-07-30T11:26:07.337Z,79.00
2022-07-30T11:28:49.510Z,78.20
2022-07-30T11:31:56.414Z,78.40
2022-07-30T11:34:26.181Z,79.10
2022-07-30T11:37:32.508Z,77.80
2022-07-30T11:40:04.399Z,76.70
2022-07-30T11:42:39.663Z,75.80
2022-07-30T11:45:20.522Z,73.70
2022-07-30T11:47:55.648Z,72.80
2022-07-30T11:50:33.063Z,75.00
2022-07-30T11:53:10.086Z,77.40
2022-07-30T11:55:44.836Z,77.60
2022-07-30T11:58:27.482Z,75.40
2022-07-30T12:01:01.938Z,73.80
2022-07-30T12:03:33.761Z,73.70
2022-07-30T12:06:07.059Z,73.60
2022-07-30T12:08:43.707Z,73.80
2022-07-30T12:11:15.609Z,74.20
2022-07-30T12:14:01.999Z,73.80
2022-07-30T12:16:34.580Z,72.40
2022-07-30T12:19:06.832Z,72.30
2022-07-30T12:21:42.481Z,71.10
2022-07-30T12:24:14.795Z,71.30
2022-07-30T12:26:47.065Z,71.90
2022-07-30T12:29:19.097Z,70.90
2022-07-30T12:31:52.721Z,69.80
2022-07-30T12:34:26.106Z,69.40
2022-07-30T12:37:08.022Z,70.20
2022-07-30T12:39:40.426Z,71.70
2022-07-30T12:42:19.765Z,72.40
2022-07-30T12:44:51.544Z,72.70
2022-07-30T12:47:28.675Z,72.80
2022-07-30T12:50:02.402Z,72.70
2022-07-30T12:52:35.762Z,71.70
2022-07-30T12:55:10.267Z,68.80
2022-07-30T12:57:56.753Z,69.80
2022-07-30T13:00:31.505Z,69.50
2022-07-30T13:03:29.521Z,70.00
2022-07-30T13:06:02.064Z,70.80
2022-07-30T13:08:51.025Z,71.30
2022-07-30T13:11:25.332Z,72.00
2022-07-30T13:13:57.050Z,72.50
2022-07-30T13:16:32.029Z,73.30
2022-07-30T13:19:04.790Z,73.90
2022-07-30T13:21:36.669Z,72.70
2022-07-30T13:24:09.382Z,73.60
2022-07-30T13:26:50.772Z,73.60
2022-07-30T13:29:22.759Z,73.70
2022-07-30T13:31:54.557Z,73.50
2022-07-30T13:34:26.616Z,74.60
2022-07-30T13:36:58.350Z,86.10
2022-07-30T13:39:30.086Z,88.50
2022-07-30T13:42:01.925Z,91.10
2022-07-30T13:44:33.719Z,91.20
2022-07-30T13:47:08.512Z,92.30
2022-07-30T13:49:44.019Z,92.00
2022-07-30T13:52:15.825Z,92.00
2022-07-30T13:54:48.175Z,90.10
2022-07-30T13:57:20.069Z,88.30
2022-07-30T13:59:52.553Z,87.60
2022-07-30T14:02:24.294Z,85.30
2022-07-30T14:04:56.001Z,83.40
2022-07-30T14:07:27.733Z,80.60
2022-07-30T14:09:59.513Z,77.00
2022-07-30T14:12:31.245Z,78.70
2022-07-30T14:15:03.497Z,78.50
2022-07-30T14:17:35.460Z,78.40
2022-07-30T14:20:07.509Z,77.10
2022-07-30T14:22:39.790Z,76.90
2022-07-30T14:25:11.884Z,76.30
2022-07-30T14:27:43.860Z,75.30
2022-07-30T14:30:20.254Z,76.30
2022-07-30T14:32:58.141Z,76.50
2022-07-30T14:35:32.365Z,76.40
2022-07-30T14:38:04.341Z,77.90
2022-07-30T14:40:36.142Z,78.00
2022-07-30T14:43:08.007Z,78.80
2022-07-30T14:45:39.769Z,80.30
2022-07-30T14:48:11.462Z,80.50
2022-07-30T14:51:11.664Z,79.10
2022-07-30T14:53:35.063Z,79.30
2022-07-30T14:56:06.857Z,79.80
2022-07-30T14:58:38.568Z,76.30
2022-07-30T15:01:16.558Z,77.40
2022-07-30T15:03:48.822Z,77.80
2022-07-30T15:06:20.538Z,77.00
2022-07-30T15:08:52.937Z,75.90
2022-07-30T15:11:24.653Z,72.00
2022-07-30T15:13:57.377Z,70.30
2022-07-30T15:16:31.094Z,70.00
2022-07-30T15:19:02.839Z,69.80
2022-07-30T15:21:34.886Z,70.20
2022-07-30T15:24:06.635Z,70.70
2022-07-30T15:26:38.477Z,70.50
2022-07-30T15:29:13.320Z,70.80
2022-07-30T15:31:45.517Z,70.40
2022-07-30T15:34:17.218Z,70.80
2022-07-30T15:36:48.950Z,70.30
2022-07-30T15:39:20.701Z,70.30
2022-07-30T15:41:54.036Z,70.00
2022-07-30T15:44:25.821Z,68.10
2022-07-30T15:46:58.659Z,67.70
2022-07-30T15:49:30.439Z,67.10
2022-07-30T15:52:02.437Z,67.00
2022-07-30T15:54:34.809Z,67.10
2022-07-30T15:57:06.643Z,66.60
2022-07-30T15:59:38.534Z,67.00
2022-07-30T16:02:10.289Z,68.00
2022-07-30T16:04:42.003Z,69.90
2022-07-30T16:07:19.989Z,71.10
2022-07-30T16:09:51.771Z,71.50
2022-07-30T16:12:23.508Z,72.40
2022-07-30T16:14:55.222Z,73.80
2022-07-30T16:17:26.988Z,74.90
2022-07-30T16:19:58.698Z,76.20
2022-07-30T16:22:30.411Z,76.50
2022-07-30T16:25:02.205Z,76.00
2022-07-30T16:27:33.966Z,76.40
2022-07-30T16:30:06.236Z,77.60
2022-07-30T16:32:37.990Z,78.60
2022-07-30T16:35:13.111Z,80.20
2022-07-30T16:37:45.751Z,80.00
2022-07-30T16:40:17.465Z,80.20
2022-07-30T16:42:49.200Z,80.90
2022-07-30T16:45:21.384Z,81.10
2022-07-30T16:47:53.157Z,81.70
2022-07-30T16:50:24.911Z,81.60
2022-07-30T16:52:58.801Z,82.30
2022-07-30T16:55:30.602Z,82.30
2022-07-30T16:58:02.313Z,82.90
2022-07-30T17:00:34.140Z,83.20
2022-07-30T17:03:06.353Z,83.30
2022-07-30T17:05:38.130Z,82.90
2022-07-30T17:08:17.813Z,83.80
2022-07-30T17:10:49.737Z,84.30
2022-07-30T17:13:21.744Z,85.40
2022-07-30T17:15:53.542Z,86.60
2022-07-30T17:18:25.275Z,86.40
2022-07-30T17:20:57.058Z,85.90
2022-07-30T17:23:28.829Z,85.90
2022-07-30T17:26:00.564Z,86.50
2022-07-30T17:28:32.442Z,87.10
2022-07-30T17:31:04.217Z,87.60
2022-07-30T17:33:35.976Z,88.50
2022-07-30T17:36:08.480Z,88.60
2022-07-30T17:38:40.211Z,88.80
2022-07-30T17:41:13.590Z,88.80
2022-07-30T17:43:45.529Z,89.70
2022-07-30T17:46:17.310Z,87.40
2022-07-30T17:48:49.504Z,87.00
2022-07-30T17:51:21.362Z,86.00
2022-07-30T17:53:53.182Z,85.50
2022-07-30T17:56:26.926Z,85.60
2022-07-30T17:58:59.190Z,85.50
2022-07-30T18:01:31.156Z,85.70
2022-07-30T18:04:03.514Z,85.60
2022-07-30T18:06:35.956Z,85.70
2022-07-30T18:09:07.857Z,85.80
2022-07-30T18:11:39.558Z,85.80
2022-07-30T18:14:11.390Z,86.50
2022-07-30T18:16:43.372Z,87.10
2022-07-30T18:19:22.865Z,86.50
2022-07-30T18:22:02.188Z,86.70
2022-07-30T18:24:40.236Z,87.50
2022-07-30T18:27:12.627Z,88.30
2022-07-30T18:29:44.520Z,89.00
2022-07-30T18:32:16.223Z,90.00
2022-07-30T18:34:47.953Z,90.20
2022-07-30T18:37:19.681Z,90.40
2022-07-30T18:39:51.470Z,90.50
2022-07-30T18:42:23.245Z,90.70
2022-07-30T18:44:55.700Z,90.90
2022-07-30T18:47:27.720Z,91.20
2022-07-30T18:49:59.623Z,91.30
2022-07-30T18:52:31.488Z,91.50
2022-07-30T18:55:04.404Z,91.70
2022-07-30T18:57:36.234Z,91.80
2022-07-30T19:00:10.858Z,91.90
2022-07-30T19:03:03.266Z,92.00
2022-07-30T19:05:35.046Z,92.30
2022-07-30T19:08:09.720Z,92.50
2022-07-30T19:10:41.998Z,92.70
2022-07-30T19:13:13.735Z,92.90
2022-07-30T19:15:45.602Z,93.00
2022-07-30T19:18:17.786Z,93.20
2022-07-30T19:20:51.332Z,93.20
2022-07-30T19:23:23.152Z,93.10
2022-07-30T19:25:54.956Z,93.10
2022-07-30T19:28:28.517Z,93.10
2022-07-30T19:31:00.325Z,93.30
2022-07-30T19:33:32.120Z,93.50
2022-07-30T19:36:04.371Z,93.90
2022-07-30T19:38:39.756Z,94.20
2022-07-30T19:44:04.990Z,94.70
2022-07-30T19:46:41.419Z,94.90
2022-07-30T19:49:13.328Z,95.00
2022-07-30T19:52:10.146Z,95.20
2022-07-30T19:54:37.360Z,95.30
2022-07-30T19:57:09.217Z,95.60
2022-07-30T20:02:35.629Z,95.60
2022-07-30T20:05:10.911Z,95.90
2022-07-30T20:07:44.530Z,96.10
2022-07-30T20:10:16.891Z,96.30
2022-07-30T20:12:49.649Z,96.50
2022-07-30T20:15:22.166Z,96.70
2022-07-30T20:17:53.970Z,96.80
2022-07-30T20:23:17.686Z,97.10
2022-07-30T20:25:49.472Z,97.10
2022-07-30T20:28:22.066Z,97.30
2022-07-30T20:30:59.736Z,97.40
2022-07-30T20:33:36.103Z,97.40
2022-07-30T20:36:10.315Z,97.70
2022-07-30T20:38:44.531Z,97.70
2022-07-30T20:41:17.029Z,97.80
2022-07-30T20:43:51.935Z,98.00
2022-07-30T20:46:24.270Z,98.20
2022-07-30T20:48:56.195Z,98.20
2022-07-30T20:51:32.981Z,98.30
2022-07-30T20:54:05.843Z,98.50
2022-07-30T20:56:38.513Z,98.60
2022-07-30T20:59:10.327Z,98.80
2022-07-30T21:01:42.279Z,99.00
2022-07-30T21:04:23.666Z,99.20
2022-07-30T21:06:57.027Z,99.30
2022-07-30T21:09:29.266Z,99.50
2022-07-30T21:12:32.729Z,99.60
2022-07-30T21:15:23.074Z,99.70
2022-07-30T21:17:55.780Z,99.70
2022-07-30T21:20:28.301Z,99.90
2022-07-30T21:23:05.266Z,99.90
2022-07-30T21:25:59.980Z,99.90
2022-07-30T21:28:35.874Z,99.90
2022-07-30T21:31:08.684Z,99.90
2022-07-30T21:33:40.954Z,99.90
2022-07-30T21:36:13.092Z,99.90
2022-07-30T21:38:46.198Z,99.90
2022-07-30T21:41:21.511Z,99.90
2022-07-30T21:44:12.346Z,99.90
2022-07-30T21:46:44.949Z,99.90
2022-07-30T21:49:16.910Z,99.90
2022-07-30T21:51:48.989Z,99.90
2022-07-30T21:54:29.339Z,99.90
2022-07-30T21:57:02.877Z,99.90
2022-07-30T21:59:34.641Z,99.90
2022-07-30T22:02:06.587Z,99.90
2022-07-30T22:04:50.494Z,99.90
2022-07-30T22:07:22.799Z,99.90
2022-07-30T22:09:54.542Z,99.90
2022-07-30T22:12:28.934Z,99.90
2022-07-30T22:15:01.009Z,99.90
2022-07-30T22:17:36.814Z,99.90
2022-07-30T22:20:11.396Z,99.90
2022-07-30T22:22:43.904Z,99.90
2022-07-30T22:25:16.039Z,99.90
2022-07-30T22:27:56.970Z,99.90
2022-07-30T22:30:30.423Z,99.90
2022-07-30T22:33:21.827Z,99.90
2022-07-30T22:35:55.770Z,99.90
2022-07-30T22:38:28.669Z,99.90
2022-07-30T22:41:01.479Z,99.90
2022-07-30T22:43:35.580Z,99.90
2022-07-30T22:46:27.236Z,99.90
2022-07-30T22:49:02.529Z,99.90
2022-07-30T22:52:01.234Z,99.90
2022-07-30T22:54:27.082Z,99.90
2022-07-30T22:57:04.168Z,99.90
2022-07-30T23:00:00.407Z,99.90
2022-07-30T23:02:28.080Z,99.90
2022-07-30T23:04:59.835Z,99.90
2022-07-30T23:07:39.992Z,99.90
2022-07-30T23:10:18.304Z,99.90
2022-07-30T23:12:15.621Z,95.60
2022-07-30T23:12:18.744Z,97.00
2022-07-30T23:12:31.099Z,94.50
2022-07-30T23:12:51.759Z,99.90
2022-07-30T23:15:24.585Z,99.90
2022-07-30T23:17:56.365Z,99.90
2022-07-30T23:20:28.103Z,99.90
2022-07-30T23:23:01.504Z,99.90
2022-07-30T23:25:38.630Z,99.90
2022-07-30T23:28:11.551Z,99.90
2022-07-30T23:30:43.322Z,99.90
2022-07-30T23:33:17.968Z,99.90
2022-07-30T23:35:50.470Z,99.90
2022-07-30T23:38:22.709Z,99.90
2022-07-30T23:40:54.689Z,99.90
2022-07-30T23:43:26.573Z,99.90
2022-07-30T23:45:58.391Z,99.90
2022-07-30T23:48:31.594Z,99.90
2022-07-30T23:51:03.407Z,99.90
2022-07-30T23:53:35.129Z,99.90
2022-07-30T23:56:07.929Z,99.90
2022-07-30T23:58:40.791Z,99.90
